sensor_id;sensor_type;location;lat;lon;timestamp;temperature;humidity
10848;DHT22;5477;48.806;9.154;2023-01-05T00:01:01;10.80;99.90
10848;DHT22;5477;48.806;9.154;2023-01-05T00:03:29;10.80;99.90
10848;DHT22;5477;48.806;9.154;2023-01-05T00:05:58;10.70;99.90
10848;DHT22;5477;48.806;9.154;2023-01-05T00:08:28;10.70;99.90
10848;DHT22;5477;48.806;9.154;2023-01-05T00:11:04;10.70;99.90
10848;DHT22;5477;48.806;9.154;2023-01-05T00:13:49;10.70;99.90
10848;DHT22;5477;48.806;9.154;2023-01-05T00:16:34;10.70;99.90
10848;DHT22;5477;48.806;9.154;2023-01-05T00:19:20;10.70;99.90
10848;DHT22;5477;48.806;9.154;2023-01-05T00:22:13;10.70;99.90
10848;DHT22;5477;48.806;9.154;2023-01-05T00:25:04;10.70;99.90
10848;DHT22;5477;48.806;9.154;2023-01-05T00:27:39;10.70;99.90
10848;DHT22;5477;48.806;9.154;2023-01-05T00:30:08;10.70;99.90
10848;DHT22;5477;48.806;9.154;2023-01-05T00:32:36;10.80;99.90
10848;DHT22;5477;48.806;9.154;2023-01-05T00:35:05;10.80;99.90
10848;DHT22;5477;48.806;9.154;2023-01-05T00:37:34;10.80;99.90
10848;DHT22;5477;48.806;9.154;2023-01-05T00:40:07;10.80;99.90
10848;DHT22;5477;48.806;9.154;2023-01-05T00:42:35;10.80;99.90
10848;DHT22;5477;48.806;9.154;2023-01-05T00:45:05;10.90;99.90
10848;DHT22;5477;48.806;9.154;2023-01-05T00:47:33;10.90;99.90
10848;DHT22;5477;48.806;9.154;2023-01-05T00:50:01;10.90;99.90
10848;DHT22;5477;48.806;9.154;2023-01-05T00:52:30;10.90;99.90
10848;DHT22;5477;48.806;9.154;2023-01-05T00:54:57;10.90;99.90
10848;DHT22;5477;48.806;9.154;2023-01-05T00:57:27;10.90;99.90
10848;DHT22;5477;48.806;9.154;2023-01-05T00:59:55;10.90;99.90
10848;DHT22;5477;48.806;9.154;2023-01-05T01:02:23;10.90;99.90
10848;DHT22;5477;48.806;9.154;2023-01-05T01:04:51;10.90;99.90
10848;DHT22;5477;48.806;9.154;2023-01-05T01:07:19;10.90;99.90
10848;DHT22;5477;48.806;9.154;2023-01-05T01:09:47;10.90;99.90
10848;DHT22;5477;48.806;9.154;2023-01-05T01:12:15;10.90;99.90
10848;DHT22;5477;48.806;9.154;2023-01-05T01:14:47;10.90;99.90
10848;DHT22;5477;48.806;9.154;2023-01-05T01:17:15;10.90;99.90
10848;DHT22;5477;48.806;9.154;2023-01-05T01:19:43;10.90;99.90
10848;DHT22;5477;48.806;9.154;2023-01-05T01:22:12;10.90;99.90
10848;DHT22;5477;48.806;9.154;2023-01-05T01:24:41;10.90;99.90
10848;DHT22;5477;48.806;9.154;2023-01-05T01:27:10;10.90;99.90
10848;DHT22;5477;48.806;9.154;2023-01-05T01:29:38;10.90;99.90
10848;DHT22;5477;48.806;9.154;2023-01-05T01:32:08;10.90;99.90
10848;DHT22;5477;48.806;9.154;2023-01-05T01:34:36;10.90;99.90
10848;DHT22;5477;48.806;9.154;2023-01-05T01:37:05;10.90;99.90
10848;DHT22;5477;48.806;9.154;2023-01-05T01:39:40;10.90;99.90
10848;DHT22;5477;48.806;9.154;2023-01-05T01:42:13;10.90;99.90
10848;DHT22;5477;48.806;9.154;2023-01-05T01:44:47;10.90;99.90
10848;DHT22;5477;48.806;9.154;2023-01-05T01:47:27;10.90;99.90
10848;DHT22;5477;48.806;9.154;2023-01-05T01:50:00;10.90;99.90
10848;DHT22;5477;48.806;9.154;2023-01-05T01:52:30;10.90;99.90
10848;DHT22;5477;48.806;9.154;2023-01-05T01:55:00;10.90;99.90
10848;DHT22;5477;48.806;9.154;2023-01-05T01:57:29;10.90;99.90
10848;DHT22;5477;48.806;9.154;2023-01-05T01:59:58;10.90;99.90
10848;DHT22;5477;48.806;9.154;2023-01-05T02:02:30;10.90;99.90
10848;DHT22;5477;48.806;9.154;2023-01-05T02:05:03;10.90;99.90
10848;DHT22;5477;48.806;9.154;2023-01-05T02:07:36;10.90;99.90
10848;DHT22;5477;48.806;9.154;2023-01-05T02:10:05;10.90;99.90
10848;DHT22;5477;48.806;9.154;2023-01-05T02:12:37;10.90;99.90
10848;DHT22;5477;48.806;9.154;2023-01-05T02:15:19;10.90;99.90
10848;DHT22;5477;48.806;9.154;2023-01-05T02:18:04;10.90;99.90
10848;DHT22;5477;48.806;9.154;2023-01-05T02:23:51;11.00;99.90
10848;DHT22;5477;48.806;9.154;2023-01-05T02:26:39;11.00;99.90
10848;DHT22;5477;48.806;9.154;2023-01-05T02:29:29;11.00;99.90
10848;DHT22;5477;48.806;9.154;2023-01-05T02:32:12;11.00;99.90
10848;DHT22;5477;48.806;9.154;2023-01-05T02:34:44;11.00;99.90
10848;DHT22;5477;48.806;9.154;2023-01-05T02:37:20;11.00;99.90
10848;DHT22;5477;48.806;9.154;2023-01-05T02:39:58;11.00;99.90
10848;DHT22;5477;48.806;9.154;2023-01-05T02:42:33;11.00;99.90
10848;DHT22;5477;48.806;9.154;2023-01-05T02:45:03;11.00;99.90
10848;DHT22;5477;48.806;9.154;2023-01-05T02:47:37;11.00;99.90
10848;DHT22;5477;48.806;9.154;2023-01-05T02:50:12;11.10;99.90
10848;DHT22;5477;48.806;9.154;2023-01-05T02:52:47;11.00;99.90
10848;DHT22;5477;48.806;9.154;2023-01-05T02:55:21;11.10;99.90
10848;DHT22;5477;48.806;9.154;2023-01-05T02:57:55;11.10;99.90
10848;DHT22;5477;48.806;9.154;2023-01-05T03:00:29;11.10;99.90
10848;DHT22;5477;48.806;9.154;2023-01-05T03:03:03;11.10;99.90
10848;DHT22;5477;48.806;9.154;2023-01-05T03:05:37;11.10;99.90
10848;DHT22;5477;48.806;9.154;2023-01-05T03:08:09;11.10;99.90
10848;DHT22;5477;48.806;9.154;2023-01-05T03:11:00;11.10;99.90
10848;DHT22;5477;48.806;9.154;2023-01-05T03:13:49;11.10;99.90
10848;DHT22;5477;48.806;9.154;2023-01-05T03:16:25;11.10;99.90
10848;DHT22;5477;48.806;9.154;2023-01-05T03:18:58;11.20;99.90
10848;DHT22;5477;48.806;9.154;2023-01-05T03:21:47;11.20;99.90
10848;DHT22;5477;48.806;9.154;2023-01-05T03:24:39;11.20;99.90
10848;DHT22;5477;48.806;9.154;2023-01-05T03:27:27;11.20;99.90
10848;DHT22;5477;48.806;9.154;2023-01-05T03:30:14;11.20;99.90
10848;DHT22;5477;48.806;9.154;2023-01-05T03:33:05;11.20;99.90
10848;DHT22;5477;48.806;9.154;2023-01-05T03:35:56;11.20;99.90
10848;DHT22;5477;48.806;9.154;2023-01-05T03:38:28;11.20;99.90
10848;DHT22;5477;48.806;9.154;2023-01-05T03:41:02;11.30;99.90
10848;DHT22;5477;48.806;9.154;2023-01-05T03:43:33;11.30;99.90
10848;DHT22;5477;48.806;9.154;2023-01-05T03:46:09;11.20;99.90
10848;DHT22;5477;48.806;9.154;2023-01-05T03:48:38;11.20;99.90
10848;DHT22;5477;48.806;9.154;2023-01-05T03:51:07;11.30;99.90
10848;DHT22;5477;48.806;9.154;2023-01-05T03:53:38;11.30;99.90
10848;DHT22;5477;48.806;9.154;2023-01-05T03:56:07;11.30;99.90
10848;DHT22;5477;48.806;9.154;2023-01-05T03:58:35;11.40;99.90
10848;DHT22;5477;48.806;9.154;2023-01-05T04:01:03;11.30;99.90
10848;DHT22;5477;48.806;9.154;2023-01-05T04:03:31;11.30;99.90
10848;DHT22;5477;48.806;9.154;2023-01-05T04:06:03;11.40;99.90
10848;DHT22;5477;48.806;9.154;2023-01-05T04:08:34;11.40;99.90
10848;DHT22;5477;48.806;9.154;2023-01-05T04:11:16;11.40;99.90
10848;DHT22;5477;48.806;9.154;2023-01-05T04:13:52;11.40;99.90
10848;DHT22;5477;48.806;9.154;2023-01-05T04:16:21;11.40;99.90
10848;DHT22;5477;48.806;9.154;2023-01-05T04:18:53;11.40;99.90
10848;DHT22;5477;48.806;9.154;2023-01-05T04:21:22;11.40;99.90
10848;DHT22;5477;48.806;9.154;2023-01-05T04:23:54;11.40;99.90
10848;DHT22;5477;48.806;9.154;2023-01-05T04:26:23;11.40;99.90
10848;DHT22;5477;48.806;9.154;2023-01-05T04:28:50;11.40;99.90
10848;DHT22;5477;48.806;9.154;2023-01-05T04:31:23;11.40;99.90
10848;DHT22;5477;48.806;9.154;2023-01-05T04:33:53;11.40;99.90
10848;DHT22;5477;48.806;9.154;2023-01-05T04:36:23;11.40;99.90
10848;DHT22;5477;48.806;9.154;2023-01-05T04:38:55;11.50;99.90
10848;DHT22;5477;48.806;9.154;2023-01-05T04:41:23;11.50;99.90
10848;DHT22;5477;48.806;9.154;2023-01-05T04:43:53;11.50;99.90
10848;DHT22;5477;48.806;9.154;2023-01-05T04:46:22;11.60;99.90
10848;DHT22;5477;48.806;9.154;2023-01-05T04:48:53;11.60;99.90
10848;DHT22;5477;48.806;9.154;2023-01-05T04:51:23;11.60;99.90
10848;DHT22;5477;48.806;9.154;2023-01-05T04:53:52;11.60;99.90
10848;DHT22;5477;48.806;9.154;2023-01-05T04:56:24;11.70;99.90
10848;DHT22;5477;48.806;9.154;2023-01-05T04:58:52;11.70;99.90
10848;DHT22;5477;48.806;9.154;2023-01-05T05:01:20;11.70;99.90
10848;DHT22;5477;48.806;9.154;2023-01-05T05:03:52;11.70;99.90
10848;DHT22;5477;48.806;9.154;2023-01-05T05:06:22;11.70;99.90
10848;DHT22;5477;48.806;9.154;2023-01-05T05:08:52;11.70;99.90
10848;DHT22;5477;48.806;9.154;2023-01-05T05:11:23;11.80;99.90
10848;DHT22;5477;48.806;9.154;2023-01-05T05:13:51;11.70;99.90
10848;DHT22;5477;48.806;9.154;2023-01-05T05:16:19;11.80;99.90
10848;DHT22;5477;48.806;9.154;2023-01-05T05:18:48;11.90;99.90
10848;DHT22;5477;48.806;9.154;2023-01-05T05:21:21;11.90;99.90
10848;DHT22;5477;48.806;9.154;2023-01-05T05:23:49;11.90;99.90
10848;DHT22;5477;48.806;9.154;2023-01-05T05:26:18;11.90;99.90
10848;DHT22;5477;48.806;9.154;2023-01-05T05:28:48;11.90;99.90
10848;DHT22;5477;48.806;9.154;2023-01-05T05:31:16;11.80;99.90
10848;DHT22;5477;48.806;9.154;2023-01-05T05:33:44;11.80;99.90
10848;DHT22;5477;48.806;9.154;2023-01-05T05:36:13;11.70;99.90
10848;DHT22;5477;48.806;9.154;2023-01-05T05:38:42;11.70;99.90
10848;DHT22;5477;48.806;9.154;2023-01-05T05:41:11;11.70;99.90
10848;DHT22;5477;48.806;9.154;2023-01-05T05:43:39;11.60;99.90
10848;DHT22;5477;48.806;9.154;2023-01-05T05:46:08;11.70;99.90
10848;DHT22;5477;48.806;9.154;2023-01-05T05:48:36;11.70;99.90
10848;DHT22;5477;48.806;9.154;2023-01-05T05:51:04;11.70;99.90
10848;DHT22;5477;48.806;9.154;2023-01-05T05:53:32;11.60;99.90
10848;DHT22;5477;48.806;9.154;2023-01-05T05:56:01;11.60;99.90
10848;DHT22;5477;48.806;9.154;2023-01-05T05:58:29;11.60;99.90
10848;DHT22;5477;48.806;9.154;2023-01-05T06:00:57;11.50;99.90
10848;DHT22;5477;48.806;9.154;2023-01-05T06:03:27;11.50;99.90
10848;DHT22;5477;48.806;9.154;2023-01-05T06:05:55;11.40;99.90
10848;DHT22;5477;48.806;9.154;2023-01-05T06:08:23;11.30;99.90
10848;DHT22;5477;48.806;9.154;2023-01-05T06:10:52;11.20;99.90
10848;DHT22;5477;48.806;9.154;2023-01-05T06:13:21;11.20;99.90
10848;DHT22;5477;48.806;9.154;2023-01-05T06:15:49;11.10;99.90
10848;DHT22;5477;48.806;9.154;2023-01-05T06:18:17;10.90;99.90
10848;DHT22;5477;48.806;9.154;2023-01-05T06:20:47;10.80;99.90
10848;DHT22;5477;48.806;9.154;2023-01-05T06:23:15;10.80;99.90
10848;DHT22;5477;48.806;9.154;2023-01-05T06:25:43;10.70;99.90
10848;DHT22;5477;48.806;9.154;2023-01-05T06:28:11;10.60;99.90
10848;DHT22;5477;48.806;9.154;2023-01-05T06:30:45;10.50;99.90
10848;DHT22;5477;48.806;9.154;2023-01-05T06:33:14;10.50;99.90
10848;DHT22;5477;48.806;9.154;2023-01-05T06:35:42;10.40;99.90
10848;DHT22;5477;48.806;9.154;2023-01-05T06:38:11;10.30;99.90
10848;DHT22;5477;48.806;9.154;2023-01-05T06:40:41;10.30;99.90
10848;DHT22;5477;48.806;9.154;2023-01-05T06:43:10;10.20;99.90
10848;DHT22;5477;48.806;9.154;2023-01-05T06:45:38;10.30;99.90
10848;DHT22;5477;48.806;9.154;2023-01-05T06:48:06;10.30;99.90
10848;DHT22;5477;48.806;9.154;2023-01-05T06:50:34;10.30;99.90
10848;DHT22;5477;48.806;9.154;2023-01-05T06:53:02;10.30;99.90
10848;DHT22;5477;48.806;9.154;2023-01-05T06:55:32;10.30;99.90
10848;DHT22;5477;48.806;9.154;2023-01-05T06:58:00;10.30;99.90
10848;DHT22;5477;48.806;9.154;2023-01-05T07:00:28;10.30;99.90
10848;DHT22;5477;48.806;9.154;2023-01-05T07:02:57;10.20;99.90
10848;DHT22;5477;48.806;9.154;2023-01-05T07:05:25;10.30;99.90
10848;DHT22;5477;48.806;9.154;2023-01-05T07:07:53;10.30;99.90
10848;DHT22;5477;48.806;9.154;2023-01-05T07:10:21;10.30;99.90
10848;DHT22;5477;48.806;9.154;2023-01-05T07:12:51;10.30;99.90
10848;DHT22;5477;48.806;9.154;2023-01-05T07:15:19;10.30;99.90
10848;DHT22;5477;48.806;9.154;2023-01-05T07:17:47;10.40;99.90
10848;DHT22;5477;48.806;9.154;2023-01-05T07:20:15;10.40;99.90
10848;DHT22;5477;48.806;9.154;2023-01-05T07:22:43;10.50;99.90
10848;DHT22;5477;48.806;9.154;2023-01-05T07:25:11;10.50;99.90
10848;DHT22;5477;48.806;9.154;2023-01-05T07:27:39;10.50;99.90
10848;DHT22;5477;48.806;9.154;2023-01-05T07:30:10;10.50;99.90
10848;DHT22;5477;48.806;9.154;2023-01-05T07:32:38;10.50;99.90
10848;DHT22;5477;48.806;9.154;2023-01-05T07:35:06;10.50;99.90
10848;DHT22;5477;48.806;9.154;2023-01-05T07:37:34;10.50;99.90
10848;DHT22;5477;48.806;9.154;2023-01-05T07:40:03;10.60;99.90
10848;DHT22;5477;48.806;9.154;2023-01-05T07:42:32;10.60;99.90
10848;DHT22;5477;48.806;9.154;2023-01-05T07:45:01;10.70;99.90
10848;DHT22;5477;48.806;9.154;2023-01-05T07:47:31;10.70;99.90
10848;DHT22;5477;48.806;9.154;2023-01-05T07:49:59;10.70;99.90
10848;DHT22;5477;48.806;9.154;2023-01-05T07:52:27;10.70;99.90
10848;DHT22;5477;48.806;9.154;2023-01-05T07:54:55;10.70;99.90
10848;DHT22;5477;48.806;9.154;2023-01-05T07:57:24;10.70;99.90
10848;DHT22;5477;48.806;9.154;2023-01-05T07:59:51;10.80;99.90
10848;DHT22;5477;48.806;9.154;2023-01-05T08:02:20;10.80;99.90
10848;DHT22;5477;48.806;9.154;2023-01-05T08:04:49;10.80;99.90
10848;DHT22;5477;48.806;9.154;2023-01-05T08:07:17;10.80;99.90
10848;DHT22;5477;48.806;9.154;2023-01-05T08:09:45;10.80;99.90
10848;DHT22;5477;48.806;9.154;2023-01-05T08:12:31;10.80;99.90
10848;DHT22;5477;48.806;9.154;2023-01-05T08:14:59;10.80;99.90
10848;DHT22;5477;48.806;9.154;2023-01-05T08:17:27;10.80;99.90
10848;DHT22;5477;48.806;9.154;2023-01-05T08:19:56;10.90;99.90
10848;DHT22;5477;48.806;9.154;2023-01-05T08:22:24;10.90;99.90
10848;DHT22;5477;48.806;9.154;2023-01-05T08:24:52;10.90;99.90
10848;DHT22;5477;48.806;9.154;2023-01-05T08:27:20;10.90;99.90
10848;DHT22;5477;48.806;9.154;2023-01-05T08:29:49;11.00;99.90
10848;DHT22;5477;48.806;9.154;2023-01-05T08:32:17;10.90;99.90
10848;DHT22;5477;48.806;9.154;2023-01-05T08:34:45;10.90;99.90
10848;DHT22;5477;48.806;9.154;2023-01-05T08:37:22;10.90;99.90
10848;DHT22;5477;48.806;9.154;2023-01-05T08:39:50;10.90;99.90
10848;DHT22;5477;48.806;9.154;2023-01-05T08:42:18;10.90;99.90
10848;DHT22;5477;48.806;9.154;2023-01-05T08:44:46;10.90;99.90
10848;DHT22;5477;48.806;9.154;2023-01-05T08:47:15;11.00;99.90
10848;DHT22;5477;48.806;9.154;2023-01-05T08:49:44;11.00;99.90
10848;DHT22;5477;48.806;9.154;2023-01-05T08:52:12;11.00;99.90
10848;DHT22;5477;48.806;9.154;2023-01-05T08:54:41;11.00;99.90
10848;DHT22;5477;48.806;9.154;2023-01-05T08:57:10;11.00;99.90
10848;DHT22;5477;48.806;9.154;2023-01-05T08:59:38;11.00;99.90
10848;DHT22;5477;48.806;9.154;2023-01-05T09:02:09;11.10;99.90
10848;DHT22;5477;48.806;9.154;2023-01-05T09:04:38;11.00;99.90
10848;DHT22;5477;48.806;9.154;2023-01-05T09:07:06;11.10;99.90
10848;DHT22;5477;48.806;9.154;2023-01-05T09:09:34;11.10;99.90
10848;DHT22;5477;48.806;9.154;2023-01-05T09:12:04;11.10;99.90
10848;DHT22;5477;48.806;9.154;2023-01-05T09:14:32;11.10;99.90
10848;DHT22;5477;48.806;9.154;2023-01-05T09:17:01;11.10;99.90
10848;DHT22;5477;48.806;9.154;2023-01-05T09:19:34;11.10;99.90
10848;DHT22;5477;48.806;9.154;2023-01-05T09:22:02;11.10;99.90
10848;DHT22;5477;48.806;9.154;2023-01-05T09:24:31;11.10;99.90
10848;DHT22;5477;48.806;9.154;2023-01-05T09:26:59;11.10;99.90
10848;DHT22;5477;48.806;9.154;2023-01-05T09:29:28;11.20;99.90
10848;DHT22;5477;48.806;9.154;2023-01-05T09:31:56;11.20;99.90
10848;DHT22;5477;48.806;9.154;2023-01-05T09:34:24;11.20;99.90
10848;DHT22;5477;48.806;9.154;2023-01-05T09:36:52;11.20;99.90
10848;DHT22;5477;48.806;9.154;2023-01-05T09:39:20;11.20;99.90
10848;DHT22;5477;48.806;9.154;2023-01-05T09:41:51;11.20;99.90
10848;DHT22;5477;48.806;9.154;2023-01-05T09:44:29;11.20;99.90
10848;DHT22;5477;48.806;9.154;2023-01-05T09:47:01;11.20;99.90
10848;DHT22;5477;48.806;9.154;2023-01-05T09:49:31;11.30;99.90
10848;DHT22;5477;48.806;9.154;2023-01-05T09:52:02;11.30;99.90
10848;DHT22;5477;48.806;9.154;2023-01-05T09:54:36;11.20;99.90
10848;DHT22;5477;48.806;9.154;2023-01-05T09:57:06;11.30;99.90
10848;DHT22;5477;48.806;9.154;2023-01-05T09:59:41;11.20;99.90
10848;DHT22;5477;48.806;9.154;2023-01-05T10:02:16;11.20;99.90
10848;DHT22;5477;48.806;9.154;2023-01-05T10:04:46;11.30;99.90
10848;DHT22;5477;48.806;9.154;2023-01-05T10:07:19;11.30;99.90
10848;DHT22;5477;48.806;9.154;2023-01-05T10:09:50;11.40;99.90
10848;DHT22;5477;48.806;9.154;2023-01-05T10:12:23;11.40;99.90
10848;DHT22;5477;48.806;9.154;2023-01-05T10:15:14;11.40;99.90
10848;DHT22;5477;48.806;9.154;2023-01-05T10:17:43;11.40;99.90
10848;DHT22;5477;48.806;9.154;2023-01-05T10:20:16;11.40;99.90
10848;DHT22;5477;48.806;9.154;2023-01-05T10:22:52;11.40;99.90
10848;DHT22;5477;48.806;9.154;2023-01-05T10:25:30;11.40;99.90
10848;DHT22;5477;48.806;9.154;2023-01-05T10:28:13;11.40;99.90
10848;DHT22;5477;48.806;9.154;2023-01-05T10:30:53;11.40;99.90
10848;DHT22;5477;48.806;9.154;2023-01-05T10:33:31;11.50;99.90
10848;DHT22;5477;48.806;9.154;2023-01-05T10:36:21;11.50;99.90
10848;DHT22;5477;48.806;9.154;2023-01-05T10:39:18;11.50;99.90
10848;DHT22;5477;48.806;9.154;2023-01-05T10:41:55;11.60;99.90
10848;DHT22;5477;48.806;9.154;2023-01-05T10:44:46;11.60;99.90
10848;DHT22;5477;48.806;9.154;2023-01-05T10:47:20;11.60;99.90
10848;DHT22;5477;48.806;9.154;2023-01-05T10:49:48;11.70;99.90
10848;DHT22;5477;48.806;9.154;2023-01-05T10:52:18;11.60;99.90
10848;DHT22;5477;48.806;9.154;2023-01-05T10:54:48;11.70;99.90
10848;DHT22;5477;48.806;9.154;2023-01-05T10:57:34;11.70;99.90
10848;DHT22;5477;48.806;9.154;2023-01-05T11:00:10;11.70;99.90
10848;DHT22;5477;48.806;9.154;2023-01-05T11:02:44;11.70;99.90
10848;DHT22;5477;48.806;9.154;2023-01-05T11:05:23;11.70;99.90
10848;DHT22;5477;48.806;9.154;2023-01-05T11:07:54;11.70;99.90
10848;DHT22;5477;48.806;9.154;2023-01-05T11:10:27;11.70;99.90
10848;DHT22;5477;48.806;9.154;2023-01-05T11:13:02;11.70;99.90
10848;DHT22;5477;48.806;9.154;2023-01-05T11:15:32;11.70;99.90
10848;DHT22;5477;48.806;9.154;2023-01-05T11:18:03;11.70;99.90
10848;DHT22;5477;48.806;9.154;2023-01-05T11:20:30;11.60;99.90
10848;DHT22;5477;48.806;9.154;2023-01-05T11:22:58;11.70;99.90
10848;DHT22;5477;48.806;9.154;2023-01-05T11:25:28;11.70;99.90
10848;DHT22;5477;48.806;9.154;2023-01-05T11:28:10;11.80;99.90
10848;DHT22;5477;48.806;9.154;2023-01-05T11:30:45;11.70;99.90
10848;DHT22;5477;48.806;9.154;2023-01-05T11:33:22;11.70;99.90
10848;DHT22;5477;48.806;9.154;2023-01-05T11:35:51;11.70;99.90
10848;DHT22;5477;48.806;9.154;2023-01-05T11:38:22;11.80;99.90
10848;DHT22;5477;48.806;9.154;2023-01-05T11:40:53;11.80;99.90
10848;DHT22;5477;48.806;9.154;2023-01-05T11:43:23;11.80;99.90
10848;DHT22;5477;48.806;9.154;2023-01-05T11:45:53;11.80;99.90
10848;DHT22;5477;48.806;9.154;2023-01-05T11:48:25;11.70;99.90
10848;DHT22;5477;48.806;9.154;2023-01-05T11:50:55;11.70;99.90
10848;DHT22;5477;48.806;9.154;2023-01-05T11:53:34;11.80;99.90
10848;DHT22;5477;48.806;9.154;2023-01-05T11:56:04;11.80;99.90
10848;DHT22;5477;48.806;9.154;2023-01-05T11:58:41;11.70;99.90
10848;DHT22;5477;48.806;9.154;2023-01-05T12:01:36;11.70;99.90
10848;DHT22;5477;48.806;9.154;2023-01-05T12:07:32;11.70;99.90
10848;DHT22;5477;48.806;9.154;2023-01-05T12:10:16;11.70;99.90
10848;DHT22;5477;48.806;9.154;2023-01-05T12:12:55;11.70;99.90
10848;DHT22;5477;48.806;9.154;2023-01-05T12:15:42;11.70;99.90
10848;DHT22;5477;48.806;9.154;2023-01-05T12:18:28;11.70;99.90
10848;DHT22;5477;48.806;9.154;2023-01-05T12:21:04;11.70;99.90
10848;DHT22;5477;48.806;9.154;2023-01-05T12:23:57;11.80;99.90
10848;DHT22;5477;48.806;9.154;2023-01-05T12:26:34;11.80;99.90
10848;DHT22;5477;48.806;9.154;2023-01-05T12:32:46;11.80;99.90
10848;DHT22;5477;48.806;9.154;2023-01-05T12:35:50;11.80;99.90
10848;DHT22;5477;48.806;9.154;2023-01-05T12:38:35;11.80;99.90
10848;DHT22;5477;48.806;9.154;2023-01-05T12:41:28;11.80;99.90
10848;DHT22;5477;48.806;9.154;2023-01-05T12:44:08;11.90;99.90
10848;DHT22;5477;48.806;9.154;2023-01-05T12:46:50;11.80;99.90
10848;DHT22;5477;48.806;9.154;2023-01-05T12:49:24;11.80;99.90
10848;DHT22;5477;48.806;9.154;2023-01-05T12:51:56;11.80;99.90
10848;DHT22;5477;48.806;9.154;2023-01-05T12:54:38;11.80;99.90
10848;DHT22;5477;48.806;9.154;2023-01-05T12:57:11;11.70;99.90
10848;DHT22;5477;48.806;9.154;2023-01-05T12:59:47;11.70;99.90
10848;DHT22;5477;48.806;9.154;2023-01-05T13:02:25;11.60;99.90
10848;DHT22;5477;48.806;9.154;2023-01-05T13:04:59;11.70;99.90
10848;DHT22;5477;48.806;9.154;2023-01-05T13:07:32;11.70;99.90
10848;DHT22;5477;48.806;9.154;2023-01-05T13:10:04;11.70;99.90
10848;DHT22;5477;48.806;9.154;2023-01-05T13:12:35;11.80;99.90
10848;DHT22;5477;48.806;9.154;2023-01-05T13:15:12;11.80;99.90
10848;DHT22;5477;48.806;9.154;2023-01-05T13:17:44;11.80;99.90
10848;DHT22;5477;48.806;9.154;2023-01-05T13:20:26;11.80;99.90
10848;DHT22;5477;48.806;9.154;2023-01-05T13:22:59;11.70;99.90
10848;DHT22;5477;48.806;9.154;2023-01-05T13:25:34;11.80;99.90
10848;DHT22;5477;48.806;9.154;2023-01-05T13:28:04;11.80;99.90
10848;DHT22;5477;48.806;9.154;2023-01-05T13:30:38;11.70;99.90
10848;DHT22;5477;48.806;9.154;2023-01-05T13:33:31;11.70;99.90
10848;DHT22;5477;48.806;9.154;2023-01-05T13:36:08;11.70;99.90
10848;DHT22;5477;48.806;9.154;2023-01-05T13:45:10;11.80;99.90
10848;DHT22;5477;48.806;9.154;2023-01-05T13:47:52;11.80;99.90
10848;DHT22;5477;48.806;9.154;2023-01-05T13:50:50;11.80;99.90
10848;DHT22;5477;48.806;9.154;2023-01-05T13:53:23;11.90;99.90
10848;DHT22;5477;48.806;9.154;2023-01-05T13:55:53;11.80;99.90
10848;DHT22;5477;48.806;9.154;2023-01-05T13:58:37;11.80;99.90
10848;DHT22;5477;48.806;9.154;2023-01-05T14:01:11;11.70;99.90
10848;DHT22;5477;48.806;9.154;2023-01-05T14:03:46;11.70;99.90
10848;DHT22;5477;48.806;9.154;2023-01-05T14:06:20;11.70;99.90
10848;DHT22;5477;48.806;9.154;2023-01-05T14:08:54;11.70;99.90
10848;DHT22;5477;48.806;9.154;2023-01-05T14:11:24;11.70;99.90
10848;DHT22;5477;48.806;9.154;2023-01-05T14:13:55;11.70;99.90
10848;DHT22;5477;48.806;9.154;2023-01-05T14:16:51;11.70;99.90
10848;DHT22;5477;48.806;9.154;2023-01-05T14:19:25;11.70;99.90
10848;DHT22;5477;48.806;9.154;2023-01-05T14:24:47;11.60;99.90
10848;DHT22;5477;48.806;9.154;2023-01-05T14:27:16;11.60;99.90
10848;DHT22;5477;48.806;9.154;2023-01-05T14:30:19;11.60;99.90
10848;DHT22;5477;48.806;9.154;2023-01-05T14:32:52;11.60;99.90
10848;DHT22;5477;48.806;9.154;2023-01-05T14:35:27;11.60;99.90
10848;DHT22;5477;48.806;9.154;2023-01-05T14:37:58;11.50;99.90
10848;DHT22;5477;48.806;9.154;2023-01-05T14:40:34;11.50;99.90
10848;DHT22;5477;48.806;9.154;2023-01-05T14:43:06;11.50;99.90
10848;DHT22;5477;48.806;9.154;2023-01-05T14:45:36;11.60;99.90
10848;DHT22;5477;48.806;9.154;2023-01-05T14:48:26;11.60;99.90
10848;DHT22;5477;48.806;9.154;2023-01-05T14:51:14;11.60;99.90
10848;DHT22;5477;48.806;9.154;2023-01-05T14:53:45;11.70;99.90
10848;DHT22;5477;48.806;9.154;2023-01-05T14:56:16;11.60;99.90
10848;DHT22;5477;48.806;9.154;2023-01-05T14:58:56;11.60;99.90
10848;DHT22;5477;48.806;9.154;2023-01-05T15:01:27;11.60;99.90
10848;DHT22;5477;48.806;9.154;2023-01-05T15:04:03;11.60;99.90
10848;DHT22;5477;48.806;9.154;2023-01-05T15:06:40;11.60;99.90
10848;DHT22;5477;48.806;9.154;2023-01-05T15:09:28;11.60;99.90
10848;DHT22;5477;48.806;9.154;2023-01-05T15:12:31;11.60;99.90
10848;DHT22;5477;48.806;9.154;2023-01-05T15:15:11;11.60;99.90
10848;DHT22;5477;48.806;9.154;2023-01-05T15:17:53;11.70;99.90
10848;DHT22;5477;48.806;9.154;2023-01-05T15:20:51;11.60;99.90
10848;DHT22;5477;48.806;9.154;2023-01-05T15:23:49;11.60;99.90
10848;DHT22;5477;48.806;9.154;2023-01-05T15:26:35;11.60;99.90
10848;DHT22;5477;48.806;9.154;2023-01-05T15:29:33;11.60;99.90
10848;DHT22;5477;48.806;9.154;2023-01-05T15:32:09;11.50;99.90
10848;DHT22;5477;48.806;9.154;2023-01-05T15:34:45;11.50;99.90
10848;DHT22;5477;48.806;9.154;2023-01-05T15:37:19;11.60;99.90
10848;DHT22;5477;48.806;9.154;2023-01-05T15:39:50;11.60;99.90
10848;DHT22;5477;48.806;9.154;2023-01-05T15:42:21;11.50;99.90
10848;DHT22;5477;48.806;9.154;2023-01-05T15:44:52;11.50;99.90
10848;DHT22;5477;48.806;9.154;2023-01-05T15:47:23;11.50;99.90
10848;DHT22;5477;48.806;9.154;2023-01-05T15:49:54;11.50;99.90
10848;DHT22;5477;48.806;9.154;2023-01-05T15:52:30;11.50;99.90
10848;DHT22;5477;48.806;9.154;2023-01-05T15:55:01;11.50;99.90
10848;DHT22;5477;48.806;9.154;2023-01-05T15:57:30;11.50;99.90
10848;DHT22;5477;48.806;9.154;2023-01-05T15:59:57;11.50;99.90
10848;DHT22;5477;48.806;9.154;2023-01-05T16:02:27;11.50;99.90
10848;DHT22;5477;48.806;9.154;2023-01-05T16:05:14;11.50;99.90
10848;DHT22;5477;48.806;9.154;2023-01-05T16:07:50;11.50;99.90
10848;DHT22;5477;48.806;9.154;2023-01-05T16:10:24;11.50;99.90
10848;DHT22;5477;48.806;9.154;2023-01-05T16:12:57;11.50;99.90
10848;DHT22;5477;48.806;9.154;2023-01-05T16:15:34;11.50;99.90
10848;DHT22;5477;48.806;9.154;2023-01-05T16:18:05;11.60;99.90
10848;DHT22;5477;48.806;9.154;2023-01-05T16:20:34;11.60;99.90
10848;DHT22;5477;48.806;9.154;2023-01-05T16:23:15;11.60;99.90
10848;DHT22;5477;48.806;9.154;2023-01-05T16:25:49;11.60;99.90
10848;DHT22;5477;48.806;9.154;2023-01-05T16:28:21;11.60;99.90
10848;DHT22;5477;48.806;9.154;2023-01-05T16:30:50;11.60;99.90
10848;DHT22;5477;48.806;9.154;2023-01-05T16:33:26;11.60;99.90
10848;DHT22;5477;48.806;9.154;2023-01-05T16:36:08;11.60;99.90
10848;DHT22;5477;48.806;9.154;2023-01-05T16:38:39;11.60;99.90
10848;DHT22;5477;48.806;9.154;2023-01-05T16:41:10;11.50;99.90
10848;DHT22;5477;48.806;9.154;2023-01-05T16:43:56;11.50;99.90